createdAt,value
2018-05-31T00:01:17.164Z,101181.02
2018-05-31T00:03:44.724Z,101176.86
2018-05-31T00:06:12.287Z,101181.39
2018-05-31T00:08:39.994Z,101176.07
2018-05-31T00:11:07.574Z,101177.27
2018-05-31T00:13:35.298Z,101175.39
2018-05-31T00:16:03.215Z,101186.23
2018-05-31T00:18:30.805Z,101180.14
2018-05-31T00:20:58.419Z,101176.28
2018-05-31T00:23:25.947Z,101179.56
2018-05-31T00:25:53.548Z,101181.94
2018-05-31T00:28:21.214Z,101185.47
2018-05-31T00:30:48.844Z,101185.16
2018-05-31T00:33:16.366Z,101175.29
2018-05-31T00:35:43.897Z,101177.13
2018-05-31T00:38:11.436Z,101165.53
2018-05-31T00:40:38.980Z,101170.59
2018-05-31T00:43:06.559Z,101167.22
2018-05-31T00:45:34.092Z,101160.78
2018-05-31T00:48:01.623Z,101160.84
2018-05-31T00:50:29.259Z,101155.52
2018-05-31T00:52:56.913Z,101154.27
2018-05-31T00:55:36.448Z,101150.30
2018-05-31T00:58:03.984Z,101144.48
2018-05-31T01:00:31.574Z,101142.48
2018-05-31T01:02:59.233Z,101142.80
2018-05-31T01:05:26.756Z,101142.44
2018-05-31T01:07:54.287Z,101144.61
2018-05-31T01:10:21.844Z,101136.03
2018-05-31T01:12:49.481Z,101131.17
2018-05-31T01:15:17.029Z,101126.56
2018-05-31T01:17:44.568Z,101130.96
2018-05-31T01:20:12.156Z,101126.20
2018-05-31T01:22:39.675Z,101117.84
2018-05-31T01:25:07.277Z,101127.88
2018-05-31T01:27:34.807Z,101125.54
2018-05-31T01:30:02.336Z,101121.14
2018-05-31T01:32:29.879Z,101118.02
2018-05-31T01:34:57.403Z,101121.12
2018-05-31T01:37:24.944Z,101125.64
2018-05-31T01:39:52.533Z,101124.95
2018-05-31T01:42:20.085Z,101125.39
2018-05-31T01:44:47.643Z,101119.25
2018-05-31T01:47:15.218Z,101120.31
2018-05-31T01:49:42.764Z,101120.58
2018-05-31T01:52:10.310Z,101120.64
2018-05-31T01:54:37.884Z,101112.96
2018-05-31T01:57:05.425Z,101119.58
2018-05-31T01:59:33.012Z,101115.18
2018-05-31T02:02:00.578Z,101118.47
2018-05-31T02:04:28.119Z,101113.38
2018-05-31T02:06:55.663Z,101118.25
2018-05-31T02:09:23.260Z,101113.78
2018-05-31T02:11:50.804Z,101119.67
2018-05-31T02:14:18.345Z,101116.84
2018-05-31T02:16:45.937Z,101119.45
2018-05-31T02:19:13.480Z,101119.29
2018-05-31T02:21:41.052Z,101118.11
2018-05-31T02:24:08.579Z,101119.47
2018-05-31T02:26:36.173Z,101117.41
2018-05-31T02:29:03.704Z,101122.92
2018-05-31T02:31:31.234Z,101123.80
2018-05-31T02:33:58.856Z,101122.80
2018-05-31T02:36:26.388Z,101132.16
2018-05-31T02:38:53.923Z,101125.89
2018-05-31T02:41:21.537Z,101122.36
2018-05-31T02:43:49.067Z,101120.39
2018-05-31T02:46:16.657Z,101122.70
2018-05-31T02:48:44.186Z,101120.17
2018-05-31T02:51:11.710Z,101113.80
2018-05-31T02:53:39.282Z,101118.78
2018-05-31T02:56:06.833Z,101117.42
2018-05-31T02:58:34.457Z,101126.00
2018-05-31T03:01:01.984Z,101130.12
2018-05-31T03:03:29.512Z,101134.48
2018-05-31T03:05:57.066Z,101131.25
2018-05-31T03:08:24.693Z,101138.86
2018-05-31T03:10:52.433Z,101137.50
2018-05-31T03:13:19.993Z,101134.11
2018-05-31T03:15:47.583Z,101131.92
2018-05-31T03:18:15.144Z,101135.01
2018-05-31T03:20:42.703Z,101129.72
2018-05-31T03:23:10.353Z,101128.56
2018-05-31T03:25:37.891Z,101133.73
2018-05-31T03:28:05.428Z,101134.77
2018-05-31T03:30:33.031Z,101136.48
2018-05-31T03:33:00.571Z,101134.92
2018-05-31T03:35:28.197Z,101131.67
2018-05-31T03:37:55.764Z,101135.19
2018-05-31T03:40:23.329Z,101131.27
2018-05-31T03:42:50.945Z,101132.90
2018-05-31T03:45:18.511Z,101138.01
2018-05-31T03:47:46.049Z,101132.03
2018-05-31T03:50:13.596Z,101131.27
2018-05-31T03:52:41.152Z,101134.89
2018-05-31T03:55:08.748Z,101140.58
2018-05-31T03:57:36.412Z,101131.97
2018-05-31T04:00:04.071Z,101134.46
2018-05-31T04:02:31.734Z,101127.82
2018-05-31T04:04:59.397Z,101128.31
2018-05-31T04:07:26.970Z,101128.39
2018-05-31T04:09:54.619Z,101131.67
2018-05-31T04:12:22.276Z,101129.79
2018-05-31T04:14:50.627Z,101135.81
2018-05-31T04:17:18.188Z,101129.98
2018-05-31T04:19:45.743Z,101133.48
2018-05-31T04:22:13.300Z,101131.81
2018-05-31T04:24:40.901Z,101133.08
2018-05-31T04:27:08.444Z,101133.38
2018-05-31T04:29:36.026Z,101127.55
2018-05-31T04:32:03.622Z,101137.89
2018-05-31T04:34:31.213Z,101143.45
2018-05-31T04:36:58.757Z,101146.41
2018-05-31T04:39:26.364Z,101143.25
2018-05-31T04:41:54.027Z,101146.17
2018-05-31T04:44:21.687Z,101145.00
2018-05-31T04:46:49.335Z,101152.67
2018-05-31T04:49:16.884Z,101149.16
2018-05-31T04:51:44.435Z,101146.99
2018-05-31T04:54:11.977Z,101149.45
2018-05-31T04:56:39.524Z,101145.11
2018-05-31T04:59:07.149Z,101151.05
2018-05-31T05:01:34.828Z,101148.75
2018-05-31T05:04:02.373Z,101147.03
2018-05-31T05:06:29.916Z,101147.66
2018-05-31T05:08:57.596Z,101148.66
2018-05-31T05:11:25.264Z,101155.39
2018-05-31T05:13:52.936Z,101153.50
2018-05-31T05:16:20.481Z,101158.45
2018-05-31T05:18:48.041Z,101160.05
2018-05-31T05:21:15.690Z,101154.91
2018-05-31T05:23:43.248Z,101150.55
2018-05-31T05:26:10.828Z,101149.63
2018-05-31T05:28:38.401Z,101147.33
2018-05-31T05:31:05.943Z,101141.14
2018-05-31T05:33:33.591Z,101143.80
2018-05-31T05:36:01.165Z,101144.70
2018-05-31T05:38:28.826Z,101145.57
2018-05-31T05:40:56.387Z,101154.72
2018-05-31T05:43:23.923Z,101150.78
2018-05-31T05:45:51.473Z,101153.20
2018-05-31T05:48:19.032Z,101154.15
2018-05-31T05:50:46.591Z,101161.72
2018-05-31T05:53:14.128Z,101162.30
2018-05-31T05:55:41.721Z,101156.55
2018-05-31T05:58:09.307Z,101164.01
2018-05-31T06:00:36.867Z,101169.64
2018-05-31T06:03:04.530Z,101163.39
2018-05-31T06:05:32.193Z,101166.89
2018-05-31T06:07:59.869Z,101169.42
2018-05-31T06:10:27.421Z,101165.44
2018-05-31T06:12:55.043Z,101169.78
2018-05-31T06:15:22.585Z,101164.92
2018-05-31T06:17:50.129Z,101160.11
2018-05-31T06:20:17.689Z,101165.08
2018-05-31T06:22:45.239Z,101161.90
2018-05-31T06:25:12.807Z,101165.41
2018-05-31T06:27:40.423Z,101163.97
2018-05-31T06:30:07.964Z,101162.40
2018-05-31T06:32:35.557Z,101163.72
2018-05-31T06:35:03.222Z,101172.59
2018-05-31T06:37:30.744Z,101169.97
2018-05-31T06:39:58.277Z,101174.78
2018-05-31T06:42:25.893Z,101166.45
2018-05-31T06:44:53.414Z,101164.21
2018-05-31T06:47:20.968Z,101162.63
2018-05-31T06:49:48.508Z,101168.57
2018-05-31T06:52:16.149Z,101163.23
2018-05-31T06:54:43.805Z,101161.59
2018-05-31T06:57:11.329Z,101170.66
2018-05-31T06:59:38.916Z,101161.74
2018-05-31T07:02:06.451Z,101157.92
2018-05-31T07:04:33.983Z,101156.16
2018-05-31T07:07:01.524Z,101157.77
2018-05-31T07:09:29.057Z,101162.77
2018-05-31T07:11:56.575Z,101159.91
2018-05-31T07:14:24.177Z,101165.52
2018-05-31T07:16:51.735Z,101165.66
2018-05-31T07:19:19.265Z,101163.93
2018-05-31T07:21:46.819Z,101162.86
2018-05-31T07:24:14.376Z,101164.42
2018-05-31T07:26:41.986Z,101163.75
2018-05-31T07:29:09.547Z,101166.00
2018-05-31T07:31:37.196Z,101165.98
2018-05-31T07:34:04.733Z,101164.22
2018-05-31T07:36:32.251Z,101163.87
2018-05-31T07:38:59.867Z,101156.88
2018-05-31T07:41:27.397Z,101159.52
2018-05-31T07:43:54.927Z,101158.47
2018-05-31T07:46:22.547Z,101166.73
2018-05-31T07:48:50.122Z,101168.22
2018-05-31T07:51:17.643Z,101168.66
2018-05-31T07:53:45.185Z,101155.47
2018-05-31T07:56:12.802Z,101163.08
2018-05-31T07:58:40.327Z,101173.77
2018-05-31T08:01:07.916Z,101165.98
2018-05-31T08:03:35.452Z,101168.13
2018-05-31T08:06:02.968Z,101169.61
2018-05-31T08:08:30.601Z,101162.77
2018-05-31T08:10:58.125Z,101167.98
2018-05-31T08:13:25.679Z,101157.12
2018-05-31T08:15:53.280Z,101162.97
2018-05-31T08:18:20.807Z,101158.05
2018-05-31T08:20:48.328Z,101165.39
2018-05-31T08:23:15.857Z,101171.29
2018-05-31T08:25:43.384Z,101172.19
2018-05-31T08:28:10.926Z,101160.68
2018-05-31T08:30:38.492Z,101166.31
2018-05-31T08:33:06.022Z,101162.48
2018-05-31T08:35:33.658Z,101169.00
2018-05-31T08:38:01.220Z,101157.67
2018-05-31T08:40:28.777Z,101164.13
2018-05-31T08:42:56.373Z,101162.45
2018-05-31T08:45:23.955Z,101172.91
2018-05-31T08:47:51.562Z,101155.27
2018-05-31T08:50:19.232Z,101168.24
2018-05-31T08:52:46.764Z,101157.56
2018-05-31T08:55:14.308Z,101160.48
2018-05-31T08:57:41.833Z,101168.59
2018-05-31T09:00:09.404Z,101166.05
2018-05-31T09:02:37.004Z,101161.75
2018-05-31T09:05:04.558Z,101157.05
2018-05-31T09:07:32.109Z,101163.69
2018-05-31T09:09:59.653Z,101167.61
2018-05-31T09:12:27.186Z,101154.23
2018-05-31T09:14:54.728Z,101152.52
2018-05-31T09:17:22.366Z,101154.53
2018-05-31T09:19:49.896Z,101151.27
2018-05-31T09:22:17.526Z,101142.09
2018-05-31T09:24:45.061Z,101150.47
2018-05-31T09:27:12.585Z,101147.75
2018-05-31T09:29:40.135Z,101152.64
2018-05-31T09:32:07.740Z,101141.71
2018-05-31T09:34:35.270Z,101142.72
2018-05-31T09:37:02.799Z,101139.39
2018-05-31T09:39:30.319Z,101144.09
2018-05-31T09:41:57.832Z,101150.65
2018-05-31T09:44:25.393Z,101138.95
2018-05-31T09:46:52.918Z,101128.95
2018-05-31T09:49:20.560Z,101131.89
2018-05-31T09:51:48.084Z,101139.22
2018-05-31T09:54:15.643Z,101138.06
2018-05-31T09:56:43.236Z,101134.20
2018-05-31T09:59:10.820Z,101131.80
2018-05-31T10:01:38.356Z,101131.67
2018-05-31T10:04:05.872Z,101139.23
2018-05-31T10:06:33.477Z,101144.77
2018-05-31T10:09:01.033Z,101130.44
2018-05-31T10:11:28.567Z,101135.61
2018-05-31T10:13:56.081Z,101123.31
2018-05-31T10:16:23.716Z,101126.28
2018-05-31T10:18:51.232Z,101120.80
2018-05-31T10:21:18.790Z,101133.50
2018-05-31T10:23:46.316Z,101127.88
2018-05-31T10:26:13.853Z,101124.67
2018-05-31T10:28:41.413Z,101113.88
2018-05-31T10:31:08.939Z,101111.02
2018-05-31T10:33:36.477Z,101111.55
2018-05-31T10:36:04.096Z,101100.32
2018-05-31T10:38:31.624Z,101099.88
2018-05-31T10:40:59.147Z,101094.77
2018-05-31T10:43:26.711Z,101091.50
2018-05-31T10:45:54.289Z,101096.97
2018-05-31T10:48:21.893Z,101101.50
2018-05-31T10:50:49.448Z,101096.80
2018-05-31T10:53:16.969Z,101083.30
2018-05-31T10:55:44.511Z,101090.42
2018-05-31T10:58:12.131Z,101090.30
2018-05-31T11:00:39.656Z,101091.86
2018-05-31T11:03:07.181Z,101090.70
2018-05-31T11:05:34.808Z,101095.95
2018-05-31T11:08:02.336Z,101092.27
2018-05-31T11:10:29.884Z,101094.56
2018-05-31T11:12:57.440Z,101088.31
2018-05-31T11:15:24.997Z,101084.71
2018-05-31T11:17:52.596Z,101079.72
2018-05-31T11:20:20.128Z,101078.70
2018-05-31T11:22:47.656Z,101081.70
2018-05-31T11:25:15.293Z,101087.91
2018-05-31T11:27:42.851Z,101081.77
2018-05-31T11:30:10.394Z,101080.82
2018-05-31T11:32:37.928Z,101081.45
2018-05-31T11:35:05.533Z,101081.67
2018-05-31T11:37:33.092Z,101082.05
2018-05-31T11:40:00.647Z,101078.52
2018-05-31T11:42:28.182Z,101071.33
2018-05-31T11:44:55.704Z,101070.31
2018-05-31T11:47:23.230Z,101066.55
2018-05-31T11:49:50.744Z,101080.98
2018-05-31T11:52:18.283Z,101070.55
2018-05-31T11:54:45.849Z,101067.33
2018-05-31T11:57:13.397Z,101062.75
2018-05-31T11:59:40.923Z,101061.84
2018-05-31T12:02:08.486Z,101052.41
2018-05-31T12:04:36.041Z,101051.08
2018-05-31T12:07:03.555Z,101052.52
2018-05-31T12:09:31.092Z,101054.13
2018-05-31T12:11:58.621Z,101050.00
2018-05-31T12:14:26.623Z,101050.70
2018-05-31T12:16:54.187Z,101052.10
2018-05-31T12:19:21.707Z,101045.22
2018-05-31T12:21:49.236Z,101043.66
2018-05-31T12:24:16.763Z,101040.64
2018-05-31T12:26:44.288Z,101043.64
2018-05-31T12:29:11.847Z,101052.25
2018-05-31T12:31:39.409Z,101046.02
2018-05-31T12:34:06.976Z,101045.20
2018-05-31T12:36:34.480Z,101048.98
2018-05-31T12:39:02.025Z,101032.53
2018-05-31T12:41:29.542Z,101044.45
2018-05-31T12:43:57.075Z,101034.88
2018-05-31T12:46:24.609Z,101036.27
2018-05-31T12:48:52.145Z,101029.13
2018-05-31T12:51:19.780Z,101031.20
2018-05-31T12:53:47.371Z,101024.53
2018-05-31T12:56:14.915Z,101035.98
2018-05-31T12:58:42.466Z,101030.55
2018-05-31T13:01:09.988Z,101032.35
2018-05-31T13:03:37.558Z,101029.59
2018-05-31T13:06:05.165Z,101023.19
2018-05-31T13:08:32.648Z,101026.44
2018-05-31T13:11:00.199Z,101020.95
2018-05-31T13:13:27.811Z,101018.88
2018-05-31T13:15:55.352Z,101020.37
2018-05-31T13:18:22.893Z,101022.30
2018-05-31T13:20:50.521Z,101015.78
2018-05-31T13:23:18.053Z,101025.93
2018-05-31T13:25:45.618Z,101024.97
2018-05-31T13:28:13.179Z,101027.99
2018-05-31T13:30:40.740Z,101027.33
2018-05-31T13:33:08.308Z,101026.42
2018-05-31T13:35:35.858Z,101017.03
2018-05-31T13:38:03.418Z,101012.14
2018-05-31T13:40:30.944Z,101014.98
2018-05-31T13:42:58.480Z,101020.86
2018-05-31T13:45:26.028Z,101017.25
2018-05-31T13:47:53.583Z,101009.98
2018-05-31T13:50:21.121Z,101016.16
2018-05-31T13:52:48.676Z,101005.67
2018-05-31T13:55:16.208Z,101012.38
2018-05-31T13:57:43.731Z,101002.42
2018-05-31T14:00:11.249Z,101002.58
2018-05-31T14:02:38.788Z,101001.34
2018-05-31T14:05:06.309Z,101000.87
2018-05-31T14:07:33.869Z,101000.23
2018-05-31T14:10:01.397Z,100998.70
2018-05-31T14:12:28.911Z,100998.57
2018-05-31T14:14:56.515Z,100998.05
2018-05-31T14:17:24.076Z,100996.28
2018-05-31T14:19:51.620Z,100993.14
2018-05-31T14:22:19.131Z,100990.31
2018-05-31T14:24:46.739Z,100992.83
2018-05-31T14:27:14.276Z,100982.65
2018-05-31T14:29:41.799Z,100984.02
2018-05-31T14:32:09.438Z,100981.20
2018-05-31T14:34:36.965Z,100981.05
2018-05-31T14:37:04.485Z,100977.95
2018-05-31T14:39:32.005Z,100975.66
2018-05-31T14:41:59.573Z,100973.63
2018-05-31T14:44:27.097Z,100974.54
2018-05-31T14:46:54.696Z,100977.11
2018-05-31T14:49:22.207Z,100972.73
2018-05-31T14:51:49.748Z,100971.97
2018-05-31T14:54:17.378Z,100975.22
2018-05-31T14:56:44.948Z,100970.66
2018-05-31T14:59:12.462Z,100975.34
2018-05-31T15:01:40.049Z,100973.64
2018-05-31T15:04:07.646Z,100969.53
2018-05-31T15:06:35.157Z,100971.58
2018-05-31T15:09:02.704Z,100970.82
2018-05-31T15:11:30.228Z,100971.47
2018-05-31T15:13:57.752Z,100969.08
2018-05-31T15:16:25.279Z,100957.83
2018-05-31T15:18:52.863Z,100962.91
2018-05-31T15:21:20.385Z,100952.73
2018-05-31T15:23:48.036Z,100956.46
2018-05-31T15:26:15.645Z,100941.97
2018-05-31T15:28:43.176Z,100941.89
2018-05-31T15:31:10.766Z,100939.22
2018-05-31T15:33:38.335Z,100943.23
2018-05-31T15:36:05.898Z,100945.56
2018-05-31T15:38:33.453Z,100945.19
2018-05-31T15:41:01.012Z,100939.03
2018-05-31T15:43:28.542Z,100938.23
2018-05-31T15:45:56.116Z,100937.73
2018-05-31T15:48:23.639Z,100930.11
2018-05-31T15:50:51.184Z,100932.96
2018-05-31T15:53:18.708Z,100937.36
2018-05-31T15:55:46.234Z,100938.59
2018-05-31T15:58:13.765Z,100934.15
2018-05-31T16:00:41.326Z,100934.96
2018-05-31T16:03:08.961Z,100928.92
2018-05-31T16:05:36.505Z,100926.17
2018-05-31T16:08:04.032Z,100931.05
2018-05-31T16:10:31.623Z,100934.27
2018-05-31T16:12:59.152Z,100937.53
2018-05-31T16:15:26.750Z,100930.54
2018-05-31T16:17:54.296Z,100928.42
2018-05-31T16:20:21.821Z,100923.86
2018-05-31T16:22:49.364Z,100930.17
2018-05-31T16:25:16.986Z,100921.09
2018-05-31T16:27:44.515Z,100922.77
2018-05-31T16:30:12.039Z,100923.89
2018-05-31T16:32:39.572Z,100925.43
2018-05-31T16:35:07.272Z,100926.45
2018-05-31T16:37:34.786Z,100930.41
2018-05-31T16:40:02.346Z,100926.88
2018-05-31T16:42:29.906Z,100926.93
2018-05-31T16:44:57.476Z,100934.28
2018-05-31T16:47:25.127Z,100940.61
2018-05-31T16:49:52.657Z,100937.16
2018-05-31T16:52:20.184Z,100939.30
2018-05-31T16:54:47.805Z,100933.38
2018-05-31T16:57:15.470Z,100933.33
2018-05-31T16:59:43.028Z,100923.26
2018-05-31T17:02:10.557Z,100926.33
2018-05-31T17:04:38.190Z,100922.20
2018-05-31T17:07:05.825Z,100916.97
2018-05-31T17:09:33.469Z,100919.48
2018-05-31T17:12:00.988Z,100934.27
2018-05-31T17:14:28.836Z,100927.00
2018-05-31T17:16:56.448Z,100923.62
2018-05-31T17:19:24.030Z,100930.92
2018-05-31T17:21:51.572Z,100932.45
2018-05-31T17:24:19.127Z,100936.97
2018-05-31T17:26:46.718Z,100928.81
2018-05-31T17:29:14.315Z,100932.91
2018-05-31T17:31:42.137Z,100938.16
2018-05-31T17:34:09.672Z,100934.86
2018-05-31T17:36:37.337Z,100935.43
2018-05-31T17:39:05.835Z,100928.81
2018-05-31T17:41:33.372Z,100936.95
2018-05-31T17:44:00.888Z,100938.78
2018-05-31T17:46:28.487Z,100940.31
2018-05-31T17:48:56.065Z,100936.60
2018-05-31T17:51:23.583Z,100943.13
2018-05-31T17:53:51.157Z,100944.86
2018-05-31T17:56:18.725Z,100944.08
2018-05-31T17:58:46.532Z,100942.80
2018-05-31T18:01:14.177Z,100939.91
2018-05-31T18:03:41.707Z,100940.11
2018-05-31T18:06:09.237Z,100937.28
2018-05-31T18:08:36.762Z,100937.05
2018-05-31T18:11:04.415Z,100940.18
2018-05-31T18:13:31.944Z,100945.81
2018-05-31T18:15:59.492Z,100941.27
2018-05-31T18:18:27.033Z,100945.09
2018-05-31T18:20:54.659Z,100942.48
2018-05-31T18:23:22.179Z,100946.14
2018-05-31T18:25:49.705Z,100944.76
2018-05-31T18:28:17.245Z,100946.90
2018-05-31T18:30:44.895Z,100949.77
2018-05-31T18:33:12.403Z,100952.45
2018-05-31T18:35:40.015Z,100950.58
2018-05-31T18:38:07.560Z,100948.08
2018-05-31T18:40:35.120Z,100957.62
2018-05-31T18:43:02.647Z,100952.61
2018-05-31T18:45:30.246Z,100953.10
2018-05-31T18:47:57.815Z,100960.07
2018-05-31T18:50:25.339Z,100956.02
2018-05-31T18:52:52.965Z,100966.32
2018-05-31T18:55:20.586Z,100964.34
2018-05-31T18:57:48.164Z,100963.84
2018-05-31T19:00:15.683Z,100963.41
2018-05-31T19:02:43.283Z,100971.56
2018-05-31T19:05:10.947Z,100974.69
2018-05-31T19:07:38.476Z,100976.23
2018-05-31T19:10:05.993Z,100971.94
2018-05-31T19:12:39.061Z,100975.92
2018-05-31T19:15:06.726Z,100978.45
2018-05-31T19:17:34.275Z,100980.69
2018-05-31T19:20:01.812Z,100980.84
2018-05-31T19:22:29.342Z,100983.47
2018-05-31T19:25:02.592Z,100984.77
2018-05-31T19:27:30.124Z,100998.51
2018-05-31T19:30:03.236Z,100997.22
2018-05-31T19:32:30.801Z,101001.56
2018-05-31T19:34:58.355Z,101007.84
2018-05-31T19:37:25.879Z,101016.77
2018-05-31T19:39:53.401Z,101011.75
2018-05-31T19:42:26.490Z,101011.75
2018-05-31T19:44:54.011Z,101018.32
2018-05-31T19:47:21.566Z,101015.24
2018-05-31T19:49:49.085Z,101017.73
2018-05-31T19:52:22.221Z,101018.34
2018-05-31T19:54:49.751Z,101026.02
2018-05-31T19:57:17.284Z,101023.36
2018-05-31T19:59:50.473Z,101023.67
2018-05-31T20:02:23.555Z,101020.00
2018-05-31T20:04:51.090Z,101019.30
2018-05-31T20:07:18.672Z,101017.92
2018-05-31T20:09:46.209Z,101023.80
2018-05-31T20:12:13.727Z,101028.55
2018-05-31T20:14:41.329Z,101024.08
2018-05-31T20:17:08.866Z,101017.85
2018-05-31T20:19:36.385Z,101017.34
2018-05-31T20:22:03.915Z,101023.16
2018-05-31T20:24:31.435Z,101020.73
2018-05-31T20:26:59.027Z,101024.36
2018-05-31T20:29:26.552Z,101025.12
2018-05-31T20:31:54.148Z,101021.94
2018-05-31T20:34:21.676Z,101022.98
2018-05-31T20:36:49.197Z,101023.00
2018-05-31T20:39:16.778Z,101029.91
2018-05-31T20:41:44.385Z,101023.78
2018-05-31T20:44:11.919Z,101027.64
2018-05-31T20:46:39.431Z,101022.28
2018-05-31T20:49:06.964Z,101026.94
2018-05-31T20:51:34.493Z,101027.73
2018-05-31T20:54:02.019Z,101030.92
2018-05-31T20:56:29.555Z,101034.97
2018-05-31T20:58:57.143Z,101027.73
2018-05-31T21:01:24.760Z,101030.91
2018-05-31T21:03:52.336Z,101031.59
2018-05-31T21:06:19.872Z,101025.73
2018-05-31T21:08:47.399Z,101028.81
2018-05-31T21:11:14.942Z,101027.24
2018-05-31T21:13:42.593Z,101022.24
2018-05-31T21:16:10.127Z,101023.28
2018-05-31T21:18:37.787Z,101027.50
2018-05-31T21:21:05.329Z,101023.84
2018-05-31T21:23:32.902Z,101022.70
2018-05-31T21:26:00.545Z,101023.64
2018-05-31T21:28:28.083Z,101021.84
2018-05-31T21:30:55.644Z,101022.09
2018-05-31T21:33:23.163Z,101022.06
2018-05-31T21:35:50.680Z,101018.71
2018-05-31T21:38:18.195Z,101026.80
2018-05-31T21:40:45.803Z,101023.86
2018-05-31T21:43:13.333Z,101021.55
2018-05-31T21:45:40.939Z,101024.55
2018-05-31T21:48:08.474Z,101019.61
2018-05-31T21:50:36.061Z,101026.09
2018-05-31T21:53:03.619Z,101022.05
2018-05-31T21:55:31.180Z,101027.52
2018-05-31T21:57:58.776Z,101027.02
2018-05-31T22:00:30.830Z,101027.10
2018-05-31T22:02:58.466Z,101028.03
2018-05-31T22:05:25.997Z,101028.78
2018-05-31T22:07:53.512Z,101027.44
2018-05-31T22:10:21.117Z,101023.97
2018-05-31T22:12:48.725Z,101026.91
2018-05-31T22:15:16.250Z,101029.75
2018-05-31T22:17:43.780Z,101023.90
2018-05-31T22:20:11.385Z,101022.93
2018-05-31T22:22:38.916Z,101028.06
2018-05-31T22:25:06.445Z,101031.22
2018-05-31T22:27:33.995Z,101031.14
2018-05-31T22:30:01.528Z,101037.98
2018-05-31T22:32:29.082Z,101026.25
2018-05-31T22:34:56.642Z,101027.80
2018-05-31T22:37:24.202Z,101024.22
2018-05-31T22:39:51.765Z,101021.58
2018-05-31T22:42:19.290Z,101026.40
2018-05-31T22:44:46.822Z,101018.66
2018-05-31T22:47:14.349Z,101013.30
2018-05-31T22:49:41.914Z,101011.38
2018-05-31T22:52:09.666Z,101017.23
2018-05-31T22:54:37.191Z,101016.52
2018-05-31T22:57:04.782Z,101021.82
2018-05-31T22:59:32.347Z,101014.69
2018-05-31T23:02:00.190Z,101024.34
2018-05-31T23:04:27.872Z,101015.28
2018-05-31T23:06:55.400Z,101018.44
2018-05-31T23:09:22.992Z,101017.57
2018-05-31T23:11:50.521Z,101021.38
2018-05-31T23:14:18.212Z,101020.45
2018-05-31T23:16:46.083Z,101019.63
2018-05-31T23:19:13.637Z,101019.97
2018-05-31T23:21:41.204Z,101022.97
2018-05-31T23:24:08.800Z,101019.73
2018-05-31T23:26:36.343Z,101024.34
2018-05-31T23:29:03.983Z,101022.95
2018-05-31T23:31:31.548Z,101022.59
2018-05-31T23:33:59.228Z,101020.79
2018-05-31T23:36:26.752Z,101020.58
2018-05-31T23:38:54.324Z,101019.26
2018-05-31T23:41:21.994Z,101018.79
2018-05-31T23:43:49.644Z,101016.30
2018-05-31T23:46:17.167Z,101012.86
2018-05-31T23:48:44.762Z,101017.64
2018-05-31T23:51:12.284Z,101017.26
2018-05-31T23:53:39.807Z,101012.36
2018-05-31T23:56:07.449Z,101014.90
2018-05-31T23:58:35.011Z,101017.52
